createdAt,value
2018-03-12T00:00:06.157Z,21.63
2018-03-12T00:02:33.771Z,22.20
2018-03-12T00:05:01.356Z,21.00
2018-03-12T00:07:28.906Z,22.83
2018-03-12T00:09:56.465Z,22.80
2018-03-12T00:12:24.054Z,21.47
2018-03-12T00:14:51.615Z,22.60
2018-03-12T00:17:19.174Z,21.60
2018-03-12T00:19:46.750Z,23.10
2018-03-12T00:22:26.888Z,20.80
2018-03-12T00:24:54.484Z,21.03
2018-03-12T00:27:22.040Z,22.53
2018-03-12T00:29:49.608Z,21.20
2018-03-12T00:32:17.198Z,23.83
2018-03-12T00:34:44.931Z,23.77
2018-03-12T00:37:12.513Z,21.23
2018-03-12T00:39:40.074Z,22.40
2018-03-12T00:42:07.649Z,22.23
2018-03-12T00:44:35.290Z,22.07
2018-03-12T00:47:02.849Z,23.13
2018-03-12T00:49:30.434Z,24.73
2018-03-12T00:51:57.992Z,23.10
2018-03-12T00:54:25.589Z,24.03
2018-03-12T00:56:53.145Z,23.00
2018-03-12T00:59:20.710Z,23.30
2018-03-12T01:01:49.096Z,22.23
2018-03-12T01:04:16.679Z,22.80
2018-03-12T01:06:44.248Z,22.67
2018-03-12T01:09:28.618Z,22.03
2018-03-12T01:11:56.201Z,22.73
2018-03-12T01:14:23.774Z,22.20
2018-03-12T01:16:51.319Z,21.60
2018-03-12T01:19:18.916Z,22.70
2018-03-12T01:21:47.256Z,23.00
2018-03-12T01:24:14.855Z,21.90
2018-03-12T01:26:43.205Z,21.70
2018-03-12T01:29:10.792Z,20.60
2018-03-12T01:31:39.152Z,21.40
2018-03-12T01:34:06.716Z,21.73
2018-03-12T01:36:34.292Z,22.97
2018-03-12T01:39:02.640Z,22.37
2018-03-12T01:41:30.204Z,22.47
2018-03-12T01:43:57.798Z,24.90
2018-03-12T01:46:26.181Z,21.37
2018-03-12T01:48:53.737Z,25.10
2018-03-12T01:51:22.071Z,24.57
2018-03-12T01:53:49.643Z,24.40
2018-03-12T01:56:17.245Z,25.57
2018-03-12T01:58:44.833Z,25.47
2018-03-12T02:01:12.392Z,25.17
2018-03-12T02:03:40.040Z,24.90
2018-03-12T02:06:07.610Z,23.47
2018-03-12T02:08:35.165Z,22.53
2018-03-12T02:11:02.748Z,24.40
2018-03-12T02:13:30.332Z,26.37
2018-03-12T02:15:57.949Z,24.57
2018-03-12T02:18:25.537Z,23.57
2018-03-12T02:20:53.165Z,22.67
2018-03-12T02:23:20.764Z,26.07
2018-03-12T02:25:48.368Z,22.40
2018-03-12T02:28:15.959Z,23.90
2018-03-12T02:30:43.516Z,24.13
2018-03-12T02:33:11.074Z,22.50
2018-03-12T02:35:38.677Z,22.77
2018-03-12T02:38:07.036Z,22.27
2018-03-12T02:40:34.610Z,23.60
2018-03-12T02:43:02.200Z,24.60
2018-03-12T02:45:29.761Z,23.73
2018-03-12T02:47:57.397Z,22.97
2018-03-12T02:50:25.011Z,24.70
2018-03-12T02:52:52.637Z,26.67
2018-03-12T02:55:20.960Z,27.30
2018-03-12T02:57:48.535Z,24.90
2018-03-12T03:00:16.092Z,26.00
2018-03-12T03:02:43.648Z,26.10
2018-03-12T03:05:11.237Z,27.27
2018-03-12T03:07:39.565Z,25.30
2018-03-12T03:10:07.124Z,26.47
2018-03-12T03:12:34.717Z,24.77
2018-03-12T03:15:02.276Z,23.43
2018-03-12T03:17:29.840Z,25.30
2018-03-12T03:19:57.411Z,25.70
2018-03-12T03:22:24.985Z,23.10
2018-03-12T03:24:53.327Z,25.00
2018-03-12T03:27:20.888Z,24.80
2018-03-12T03:29:48.460Z,22.10
2018-03-12T03:32:16.018Z,23.60
2018-03-12T03:34:43.592Z,23.77
2018-03-12T03:37:11.145Z,23.93
2018-03-12T03:39:38.732Z,22.23
2018-03-12T03:42:07.073Z,25.63
2018-03-12T03:44:34.636Z,22.93
2018-03-12T03:47:02.229Z,25.83
2018-03-12T03:49:30.543Z,25.67
2018-03-12T03:51:58.096Z,23.60
2018-03-12T03:54:25.676Z,28.90
2018-03-12T03:56:53.251Z,27.80
2018-03-12T03:59:20.838Z,27.30
2018-03-12T04:01:49.152Z,31.13
2018-03-12T04:04:16.732Z,29.00
2018-03-12T04:06:44.282Z,30.73
2018-03-12T04:09:11.832Z,30.00
2018-03-12T04:11:39.428Z,29.10
2018-03-12T04:16:40.999Z,29.87
2018-03-12T04:19:08.600Z,28.70
2018-03-12T04:21:36.175Z,30.20
2018-03-12T04:24:03.756Z,29.47
2018-03-12T04:26:31.309Z,29.63
2018-03-12T04:28:58.871Z,30.13
2018-03-12T04:31:26.450Z,30.83
2018-03-12T04:33:54.008Z,30.73
2018-03-12T04:36:21.573Z,31.00
2018-03-12T04:38:49.151Z,30.00
2018-03-12T04:41:16.728Z,30.93
2018-03-12T04:43:45.076Z,33.67
2018-03-12T04:46:12.631Z,32.20
2018-03-12T04:48:40.227Z,32.20
2018-03-12T04:51:08.648Z,32.83
2018-03-12T04:53:36.226Z,30.80
2018-03-12T04:56:03.784Z,31.30
2018-03-12T04:58:31.351Z,32.03
2018-03-12T05:00:58.948Z,34.30
2018-03-12T05:03:27.265Z,32.70
2018-03-12T05:05:54.823Z,33.60
2018-03-12T05:08:22.489Z,33.40
2018-03-12T05:10:50.075Z,31.77
2018-03-12T05:13:17.661Z,37.10
2018-03-12T05:15:45.229Z,33.90
2018-03-12T05:18:12.788Z,33.13
2018-03-12T05:20:41.128Z,36.83
2018-03-12T05:23:08.675Z,37.60
2018-03-12T05:25:36.249Z,35.57
2018-03-12T05:28:03.805Z,34.90
2018-03-12T05:30:31.387Z,37.43
2018-03-12T05:32:58.968Z,37.03
2018-03-12T05:35:27.276Z,37.17
2018-03-12T05:37:54.846Z,38.27
2018-03-12T05:40:22.428Z,38.17
2018-03-12T05:42:49.980Z,37.20
2018-03-12T05:45:17.531Z,36.97
2018-03-12T05:47:45.123Z,36.90
2018-03-12T05:50:12.681Z,38.10
2018-03-12T05:52:40.256Z,37.37
2018-03-12T05:55:07.840Z,39.93
2018-03-12T05:57:35.387Z,38.77
2018-03-12T06:00:03.711Z,38.30
2018-03-12T06:02:31.299Z,38.83
2018-03-12T06:04:58.848Z,38.77
2018-03-12T06:07:26.399Z,40.43
2018-03-12T06:09:54.032Z,40.30
2018-03-12T06:12:21.653Z,42.77
2018-03-12T06:14:49.235Z,46.00
2018-03-12T06:17:17.549Z,44.03
2018-03-12T06:19:46.091Z,44.03
2018-03-12T06:22:13.659Z,45.13
2018-03-12T06:24:41.216Z,44.47
2018-03-12T06:27:08.797Z,42.07
2018-03-12T06:29:36.370Z,44.93
2018-03-12T06:32:03.949Z,45.67
2018-03-12T06:34:31.507Z,43.43
2018-03-12T06:36:59.060Z,42.97
2018-03-12T06:39:26.638Z,40.00
2018-03-12T06:41:54.236Z,39.47
2018-03-12T06:44:22.560Z,39.03
2018-03-12T06:46:50.120Z,37.20
2018-03-12T06:49:17.704Z,34.23
2018-03-12T06:51:45.252Z,31.80
2018-03-12T06:54:12.816Z,31.13
2018-03-12T06:56:40.413Z,30.90
2018-03-12T06:59:08.743Z,32.60
2018-03-12T07:01:36.297Z,28.77
2018-03-12T07:04:03.880Z,28.30
2018-03-12T07:06:31.456Z,30.83
2018-03-12T07:08:59.809Z,28.27
2018-03-12T07:11:27.417Z,27.60
2018-03-12T07:13:54.976Z,30.00
2018-03-12T07:16:22.553Z,25.50
2018-03-12T07:18:50.165Z,24.23
2018-03-12T07:21:17.720Z,25.40
2018-03-12T07:23:45.316Z,24.17
2018-03-12T07:26:13.656Z,27.53
2018-03-12T07:28:41.220Z,25.97
2018-03-12T07:31:08.808Z,26.63
2018-03-12T07:33:37.154Z,26.40
2018-03-12T07:36:04.714Z,26.13
2018-03-12T07:38:32.299Z,25.47
2018-03-12T07:41:00.625Z,23.20
2018-03-12T07:43:28.204Z,25.67
2018-03-12T07:45:55.786Z,24.27
2018-03-12T07:48:23.375Z,24.30
2018-03-12T07:50:51.719Z,22.60
2018-03-12T07:53:19.300Z,23.87
2018-03-12T07:55:47.620Z,22.20
2018-03-12T07:58:15.196Z,21.93
2018-03-12T08:00:42.770Z,20.50
2018-03-12T08:03:10.328Z,21.30
2018-03-12T08:05:37.941Z,21.27
2018-03-12T08:08:05.489Z,20.50
2018-03-12T08:10:33.848Z,19.10
2018-03-12T08:13:01.406Z,19.87
2018-03-12T08:15:28.955Z,20.63
2018-03-12T08:17:56.537Z,19.30
2018-03-12T08:20:24.859Z,19.60
2018-03-12T08:22:52.445Z,19.10
2018-03-12T08:25:20.061Z,17.13
2018-03-12T08:27:47.644Z,17.20
2018-03-12T08:30:15.203Z,18.03
2018-03-12T08:32:42.818Z,18.20
2018-03-12T08:35:11.137Z,16.90
2018-03-12T08:37:38.712Z,16.10
2018-03-12T08:40:06.296Z,15.40
2018-03-12T08:42:33.871Z,16.63
2018-03-12T08:45:02.193Z,16.10
2018-03-12T08:47:29.788Z,15.43
2018-03-12T08:49:57.348Z,15.97
2018-03-12T08:52:24.961Z,16.87
2018-03-12T08:54:52.563Z,15.90
2018-03-12T08:57:20.135Z,16.37
2018-03-12T08:59:47.693Z,17.27
2018-03-12T09:02:15.417Z,16.80
2018-03-12T09:04:42.981Z,17.37
2018-03-12T09:07:10.572Z,18.80
2018-03-12T09:09:38.138Z,16.70
2018-03-12T09:12:05.726Z,15.30
2018-03-12T09:14:34.048Z,15.97
2018-03-12T09:17:01.640Z,17.07
2018-03-12T09:19:29.189Z,15.80
2018-03-12T09:21:56.749Z,15.30
2018-03-12T09:24:24.359Z,17.23
2018-03-12T09:26:51.965Z,14.87
2018-03-12T09:29:19.544Z,16.80
2018-03-12T09:31:47.134Z,16.50
2018-03-12T09:34:14.749Z,16.23
2018-03-12T09:36:42.313Z,16.53
2018-03-12T09:39:09.936Z,18.00
2018-03-12T09:41:37.500Z,16.63
2018-03-12T09:44:05.140Z,17.07
2018-03-12T09:46:32.729Z,17.17
2018-03-12T09:49:00.281Z,16.50
2018-03-12T09:51:27.860Z,18.47
2018-03-12T09:53:55.441Z,18.23
2018-03-12T09:56:23.029Z,17.60
2018-03-12T09:58:50.608Z,16.50
2018-03-12T10:01:18.181Z,17.07
2018-03-12T10:03:45.738Z,17.30
2018-03-12T10:06:13.335Z,18.43
2018-03-12T10:08:40.903Z,17.47
2018-03-12T10:11:08.457Z,17.43
2018-03-12T10:13:36.036Z,16.73
2018-03-12T10:16:04.444Z,16.93
2018-03-12T10:18:32.020Z,17.10
2018-03-12T10:20:59.576Z,16.57
2018-03-12T10:23:27.159Z,15.07
2018-03-12T10:25:54.732Z,12.93
2018-03-12T10:28:22.292Z,13.30
2018-03-12T10:30:49.878Z,13.20
2018-03-12T10:33:18.253Z,13.00
2018-03-12T10:35:47.334Z,14.70
2018-03-12T10:38:14.909Z,12.80
2018-03-12T10:40:43.260Z,14.73
2018-03-12T10:43:10.804Z,13.27
2018-03-12T10:45:38.448Z,12.67
2018-03-12T10:48:06.046Z,13.37
2018-03-12T10:50:33.606Z,13.70
2018-03-12T10:53:01.176Z,13.70
2018-03-12T10:55:28.768Z,13.83
2018-03-12T10:57:56.366Z,15.67
2018-03-12T11:00:23.915Z,13.13
2018-03-12T11:02:51.504Z,14.00
2018-03-12T11:05:24.697Z,14.80
2018-03-12T11:07:52.289Z,14.10
2018-03-12T11:10:19.848Z,14.13
2018-03-12T11:12:48.189Z,14.57
2018-03-12T11:15:15.768Z,15.70
2018-03-12T11:17:43.343Z,15.47
2018-03-12T11:20:11.685Z,15.87
2018-03-12T11:22:39.245Z,16.30
2018-03-12T11:25:06.821Z,17.60
2018-03-12T11:27:34.376Z,18.80
2018-03-12T11:30:01.977Z,18.90
2018-03-12T11:32:29.533Z,18.07
2018-03-12T11:34:57.092Z,18.53
2018-03-12T11:37:24.690Z,18.17
2018-03-12T11:39:52.267Z,20.23
2018-03-12T11:42:19.839Z,19.10
2018-03-12T11:44:47.412Z,18.57
2018-03-12T11:47:15.736Z,18.67
2018-03-12T11:49:43.331Z,20.43
2018-03-12T11:52:10.888Z,20.80
2018-03-12T11:54:38.449Z,20.70
2018-03-12T11:57:06.044Z,20.63
2018-03-12T11:59:34.369Z,20.30
2018-03-12T12:02:01.925Z,19.30
2018-03-12T12:04:29.496Z,18.90
2018-03-12T12:06:57.089Z,18.10
2018-03-12T12:09:25.408Z,17.40
2018-03-12T12:11:52.968Z,14.23
2018-03-12T12:14:20.553Z,13.87
2018-03-12T12:16:48.152Z,12.10
2018-03-12T12:19:16.492Z,10.90
2018-03-12T12:21:44.080Z,10.03
2018-03-12T12:24:12.404Z,10.30
2018-03-12T12:26:39.989Z,8.80
2018-03-12T12:29:07.539Z,10.13
2018-03-12T12:31:35.108Z,9.73
2018-03-12T12:34:02.710Z,10.90
2018-03-12T12:36:31.021Z,9.87
2018-03-12T12:38:58.598Z,11.53
2018-03-12T12:41:26.200Z,10.67
2018-03-12T12:43:54.538Z,12.03
2018-03-12T12:46:22.101Z,11.40
2018-03-12T12:48:49.692Z,11.93
2018-03-12T12:51:18.048Z,12.10
2018-03-12T12:53:45.604Z,12.37
2018-03-12T12:56:13.164Z,12.77
2018-03-12T12:58:41.501Z,11.90
2018-03-12T13:01:09.080Z,12.57
2018-03-12T13:03:36.672Z,11.63
2018-03-12T13:06:04.266Z,12.67
2018-03-12T13:08:31.841Z,11.67
2018-03-12T13:10:59.395Z,12.30
2018-03-12T13:13:26.980Z,11.17
2018-03-12T13:15:54.572Z,13.77
2018-03-12T13:18:22.145Z,12.60
2018-03-12T13:20:49.719Z,11.10
2018-03-12T13:23:18.036Z,11.73
2018-03-12T13:25:45.628Z,11.00
2018-03-12T13:28:13.192Z,9.93
2018-03-12T13:30:40.750Z,10.63
2018-03-12T13:33:08.315Z,8.83
2018-03-12T13:35:35.969Z,8.03
2018-03-12T13:38:03.542Z,6.23
2018-03-12T13:40:32.009Z,6.37
2018-03-12T13:42:59.572Z,6.00
2018-03-12T13:45:27.126Z,8.27
2018-03-12T13:47:54.708Z,7.23
2018-03-12T13:50:23.032Z,6.70
2018-03-12T13:52:50.618Z,8.43
2018-03-12T13:55:18.208Z,8.53
2018-03-12T13:57:46.631Z,7.60
2018-03-12T14:00:14.321Z,9.40
2018-03-12T14:02:41.876Z,9.20
2018-03-12T14:05:09.456Z,9.80
2018-03-12T14:07:38.549Z,9.23
2018-03-12T14:10:06.126Z,12.00
2018-03-12T14:12:34.484Z,12.80
2018-03-12T14:15:03.632Z,15.07
2018-03-12T14:17:31.929Z,16.10
2018-03-12T14:22:51.614Z,15.73
2018-03-12T14:25:19.213Z,15.93
2018-03-12T14:27:46.765Z,16.27
2018-03-12T14:30:14.320Z,15.13
2018-03-12T14:32:41.903Z,14.00
2018-03-12T14:35:09.464Z,12.37
2018-03-12T14:37:37.052Z,11.80
2018-03-12T14:40:04.672Z,11.40
2018-03-12T14:42:32.270Z,11.53
2018-03-12T14:44:59.863Z,12.53
2018-03-12T14:47:27.425Z,12.47
2018-03-12T14:49:55.012Z,13.40
2018-03-12T14:52:22.602Z,15.27
2018-03-12T14:54:50.969Z,14.00
2018-03-12T14:57:19.381Z,15.57
2018-03-12T14:59:46.952Z,15.90
2018-03-12T15:02:14.509Z,15.43
2018-03-12T15:04:42.097Z,14.97
2018-03-12T15:07:09.663Z,16.60
2018-03-12T15:09:38.004Z,15.10
2018-03-12T15:12:05.617Z,14.97
2018-03-12T15:14:33.207Z,15.43
2018-03-12T15:17:01.524Z,15.50
2018-03-12T15:19:29.189Z,16.23
2018-03-12T15:21:56.720Z,16.10
2018-03-12T15:24:24.298Z,16.50
2018-03-12T15:26:51.892Z,14.90
2018-03-12T15:29:19.458Z,15.40
2018-03-12T15:31:47.048Z,16.77
2018-03-12T15:34:15.391Z,18.83
2018-03-12T15:36:42.956Z,19.43
2018-03-12T15:39:10.569Z,18.93
2018-03-12T15:41:38.129Z,22.10
2018-03-12T15:44:05.732Z,22.10
2018-03-12T15:46:33.340Z,28.60
2018-03-12T15:49:00.904Z,20.70
2018-03-12T15:51:28.492Z,21.93
2018-03-12T15:53:56.080Z,25.30
2018-03-12T15:56:23.637Z,25.00
2018-03-12T15:58:51.221Z,25.63
2018-03-12T16:01:19.541Z,27.50
2018-03-12T16:03:47.145Z,26.73
2018-03-12T16:06:14.715Z,28.70
2018-03-12T16:08:42.326Z,33.83
2018-03-12T16:11:09.909Z,33.37
2018-03-12T16:13:37.505Z,34.10
2018-03-12T16:16:05.984Z,34.97
2018-03-12T16:18:33.566Z,35.80
2018-03-12T16:21:01.168Z,39.07
2018-03-12T16:23:28.728Z,36.47
2018-03-12T16:25:56.285Z,40.80
2018-03-12T16:28:23.906Z,35.93
2018-03-12T16:30:51.564Z,37.57
2018-03-12T16:33:19.976Z,40.60
2018-03-12T16:35:47.684Z,38.83
2018-03-12T16:38:16.073Z,37.60
2018-03-12T16:40:44.414Z,41.33
2018-03-12T16:43:11.972Z,40.40
2018-03-12T16:45:39.568Z,44.33
2018-03-12T16:48:07.164Z,41.67
2018-03-12T16:50:34.747Z,41.90
2018-03-12T16:53:02.329Z,38.80
2018-03-12T16:55:29.960Z,41.50
2018-03-12T16:57:57.532Z,41.87
2018-03-12T17:00:25.124Z,43.87
2018-03-12T17:02:52.689Z,39.57
2018-03-12T17:05:20.277Z,44.57
2018-03-12T17:07:48.737Z,40.70
2018-03-12T17:10:16.320Z,41.57
2018-03-12T17:12:44.791Z,42.20
2018-03-12T17:15:12.388Z,37.47
2018-03-12T17:17:40.010Z,40.50
2018-03-12T17:20:08.359Z,45.10
2018-03-12T17:22:36.049Z,46.00
2018-03-12T17:25:03.668Z,41.80
2018-03-12T17:27:31.306Z,40.53
2018-03-12T17:29:58.934Z,42.37
2018-03-12T17:32:26.716Z,42.63
2018-03-12T17:34:54.357Z,45.37
2018-03-12T17:37:22.805Z,42.30
2018-03-12T17:39:50.511Z,45.87
2018-03-12T17:42:18.048Z,44.60
2018-03-12T17:44:45.760Z,43.27
2018-03-12T17:47:13.348Z,45.40
2018-03-12T17:49:40.936Z,46.17
2018-03-12T17:52:08.620Z,45.10
2018-03-12T17:54:36.960Z,45.60
2018-03-12T17:57:04.520Z,44.77
2018-03-12T17:59:32.937Z,57.80
2018-03-12T18:02:01.256Z,51.77
2018-03-12T18:04:28.820Z,46.23
2018-03-12T18:06:56.403Z,46.97
2018-03-12T18:09:23.961Z,51.07
2018-03-12T18:11:51.548Z,47.33
2018-03-12T18:14:19.949Z,46.50
2018-03-12T18:16:47.531Z,44.67
2018-03-12T18:19:15.136Z,46.20
2018-03-12T18:21:42.746Z,51.03
2018-03-12T18:24:10.320Z,49.47
2018-03-12T18:26:37.872Z,47.63
2018-03-12T18:29:05.452Z,49.30
2018-03-12T18:31:33.044Z,48.40
2018-03-12T18:34:00.608Z,48.57
2018-03-12T18:36:28.197Z,46.03
2018-03-12T18:38:55.911Z,50.10
2018-03-12T18:41:23.500Z,43.07
2018-03-12T18:43:51.818Z,51.47
2018-03-12T18:46:19.412Z,50.53
2018-03-12T18:48:46.981Z,49.87
2018-03-12T18:51:14.549Z,53.77
2018-03-12T18:53:42.140Z,48.97
2018-03-12T18:56:09.740Z,47.90
2018-03-12T18:58:37.292Z,45.43
2018-03-12T19:01:04.878Z,46.97
2018-03-12T19:03:32.436Z,47.20
2018-03-12T19:06:00.033Z,49.93
2018-03-12T19:08:28.352Z,50.50
2018-03-12T19:10:55.901Z,49.73
2018-03-12T19:13:24.353Z,45.50
2018-03-12T19:15:52.705Z,53.20
2018-03-12T19:18:20.257Z,49.30
2018-03-12T19:20:47.940Z,50.17
2018-03-12T19:23:16.296Z,51.50
2018-03-12T19:25:43.853Z,49.53
2018-03-12T19:28:11.440Z,49.53
2018-03-12T19:30:39.765Z,48.43
2018-03-12T19:33:07.356Z,46.07
2018-03-12T19:35:34.920Z,46.70
2018-03-12T19:38:02.507Z,46.30
2018-03-12T19:40:30.834Z,45.73
2018-03-12T19:42:58.437Z,43.23
2018-03-12T19:45:26.761Z,45.17
2018-03-12T19:47:54.319Z,45.67
2018-03-12T19:50:21.909Z,44.50
2018-03-12T19:52:49.465Z,44.00
2018-03-12T19:55:17.032Z,45.17
2018-03-12T19:57:44.624Z,41.80
2018-03-12T20:00:12.977Z,44.83
2018-03-12T20:02:40.564Z,47.90
2018-03-12T20:07:58.792Z,46.07
2018-03-12T20:10:26.340Z,47.03
2018-03-12T20:13:01.871Z,47.47
2018-03-12T20:15:33.101Z,50.53
2018-03-12T20:18:01.229Z,49.80
2018-03-12T20:20:28.818Z,51.33
2018-03-12T20:22:56.392Z,49.40
2018-03-12T20:25:23.952Z,54.90
2018-03-12T20:27:51.569Z,53.37
2018-03-12T20:30:19.121Z,52.20
2018-03-12T20:32:46.686Z,50.93
2018-03-12T20:35:14.281Z,50.43
2018-03-12T20:37:41.850Z,50.87
2018-03-12T20:40:09.462Z,47.40
2018-03-12T20:42:37.039Z,48.17
2018-03-12T20:45:05.367Z,54.93
2018-03-12T20:47:32.953Z,51.97
2018-03-12T20:50:00.544Z,52.30
2018-03-12T20:52:28.159Z,49.00
2018-03-12T20:54:55.773Z,52.53
2018-03-12T20:57:23.349Z,54.90
2018-03-12T20:59:50.909Z,54.70
2018-03-12T21:02:18.533Z,54.13
2018-03-12T21:04:46.097Z,50.90
2018-03-12T21:07:13.652Z,52.63
2018-03-12T21:09:41.297Z,49.50
2018-03-12T21:12:08.881Z,48.13
2018-03-12T21:14:37.247Z,49.50
2018-03-12T21:17:04.857Z,49.67
2018-03-12T21:19:32.530Z,51.83
2018-03-12T21:22:00.103Z,50.80
2018-03-12T21:24:27.714Z,48.47
2018-03-12T21:26:56.041Z,51.90
2018-03-12T21:29:23.629Z,52.70
2018-03-12T21:31:52.111Z,52.27
2018-03-12T21:37:10.487Z,55.27
2018-03-12T21:39:38.880Z,53.10
2018-03-12T21:42:06.462Z,53.77
2018-03-12T21:44:34.052Z,51.27
2018-03-12T21:47:01.644Z,53.60
2018-03-12T21:49:29.227Z,51.87
2018-03-12T21:51:56.808Z,50.40
2018-03-12T21:54:24.397Z,58.00
2018-03-12T21:56:51.973Z,50.37
2018-03-12T21:59:19.582Z,55.67
2018-03-12T22:01:47.201Z,53.80
2018-03-12T22:04:14.784Z,50.07
2018-03-12T22:06:42.409Z,57.10
2018-03-12T22:09:09.990Z,51.07
2018-03-12T22:11:37.616Z,51.57
2018-03-12T22:14:05.215Z,47.47
2018-03-12T22:16:33.573Z,45.37
2018-03-12T22:19:01.957Z,39.70
2018-03-12T22:21:29.543Z,42.37
2018-03-12T22:23:57.128Z,36.70
2018-03-12T22:26:24.779Z,33.40
2018-03-12T22:28:52.384Z,32.70
2018-03-12T22:31:19.988Z,27.67
2018-03-12T22:33:47.602Z,26.10
2018-03-12T22:36:15.178Z,24.10
2018-03-12T22:38:42.740Z,20.37
2018-03-12T22:41:10.350Z,19.30
2018-03-12T22:43:37.914Z,16.40
2018-03-12T22:46:05.506Z,14.33
2018-03-12T22:48:33.141Z,14.63
2018-03-12T22:51:00.766Z,13.60
2018-03-12T22:53:29.158Z,11.63
2018-03-12T22:55:56.844Z,12.87
2018-03-12T22:58:24.479Z,11.73
2018-03-12T23:00:52.081Z,10.97
2018-03-12T23:03:19.707Z,12.13
2018-03-12T23:05:47.303Z,12.47
2018-03-12T23:08:14.888Z,10.60
2018-03-12T23:10:42.482Z,11.07
2018-03-12T23:13:10.056Z,9.97
2018-03-12T23:15:37.669Z,11.37
2018-03-12T23:18:05.283Z,11.10
2018-03-12T23:20:32.879Z,11.10
2018-03-12T23:23:00.497Z,11.00
2018-03-12T23:25:28.077Z,12.00
2018-03-12T23:27:55.677Z,11.53
2018-03-12T23:30:23.241Z,10.33
2018-03-12T23:32:50.854Z,9.70
2018-03-12T23:35:18.432Z,10.27
2018-03-12T23:37:46.079Z,9.03
2018-03-12T23:40:13.694Z,8.30
2018-03-12T23:42:41.260Z,8.60
2018-03-12T23:45:09.624Z,7.40
2018-03-12T23:47:37.228Z,8.03
2018-03-12T23:50:04.772Z,7.50
2018-03-12T23:52:32.353Z,7.30
2018-03-12T23:54:59.957Z,6.27
2018-03-12T23:57:27.521Z,6.87
2018-03-12T23:59:55.205Z,6.43
